Mizuho — JD2038 — position and weather

sailwx.info

Track history (hours):
 
Tides and Currents Weather Stations Pressure Air Temp Water Temp Dewpoint Dewpoint Depression Visibility Wind Speed Wind Dir Waves Ship Positions

Mizuho

Last reported at 2017-Oct-19 07:19 UTC. Time now 2017-Oct-19 22:06 UTC.
Position N 35°29' E 140°00'.

Length 32 m; draft 3.9 m.

Type: Tug. MMSI: 431000205.

Date/timePositionNaut miles runAvg speedWind from/ knotsBaromVisibWave heightAir tempDewpointWater temp
2017-Oct-19 07:19N 35°29' E 140°00'0 0.9
2017-Oct-19 06:54N 35°29' E 140°01'0 0.3
2017-Oct-19 06:26N 35°29' E 140°01'  
2017-Oct-16 06:48N 35°28' E 139°58'2 0.4
2017-Oct-16 01:20N 35°30' E 139°57'2 6.3
2017-Oct-16 01:01N 35°28' E 139°58'0 0.3
2017-Oct-16 00:29N 35°28' E 139°58'5 0.2
2017-Oct-14 23:18N 35°32' E 139°55'5 0.1
2017-Oct-12 22:19N 35°29' E 140°01'0 0.4
2017-Oct-12 21:59N 35°29' E 140°01'2 0.2
2017-Oct-12 10:17N 35°29' E 139°58'0 1.0
2017-Oct-12 09:59N 35°28' E 139°58'0 0.0
2017-Oct-10 06:56N 35°28' E 139°58'0 0.0
2017-Oct-10 06:30N 35°28' E 139°58'3 1.5
2017-Oct-10 04:41N 35°30' E 139°55'1 4.4
2017-Oct-10 04:24N 35°29' E 139°54'  
Track history (hours):
 
Tides and Currents Weather Stations Pressure Air Temp Water Temp Dewpoint Dewpoint Depression Visibility Wind Speed Wind Dir Waves Ship Positions

Mizuho

Last reported at 2017-Oct-19 07:19 UTC. Time now 2017-Oct-19 22:06 UTC.
Position N 35°29' E 140°00'.

Length 32 m; draft 3.9 m.

Type: Tug. MMSI: 431000205.

Date/timePositionNaut miles runAvg speedWind from/ knotsBaromVisibWave heightAir tempDewpointWater temp
2017-Oct-19 07:19N 35°29' E 140°00'0 0.9
2017-Oct-19 06:54N 35°29' E 140°01'0 0.3
2017-Oct-19 06:26N 35°29' E 140°01'  
2017-Oct-16 06:48N 35°28' E 139°58'2 0.4
2017-Oct-16 01:20N 35°30' E 139°57'2 6.3
2017-Oct-16 01:01N 35°28' E 139°58'0 0.3
2017-Oct-16 00:29N 35°28' E 139°58'5 0.2
2017-Oct-14 23:18N 35°32' E 139°55'5 0.1
2017-Oct-12 22:19N 35°29' E 140°01'0 0.4
2017-Oct-12 21:59N 35°29' E 140°01'2 0.2
2017-Oct-12 10:17N 35°29' E 139°58'0 1.0
2017-Oct-12 09:59N 35°28' E 139°58'0 0.0
2017-Oct-10 06:56N 35°28' E 139°58'0 0.0
2017-Oct-10 06:30N 35°28' E 139°58'3 1.5
2017-Oct-10 04:41N 35°30' E 139°55'1 4.4
2017-Oct-10 04:24N 35°29' E 139°54'  

Dump ship's entire track history